Time;durP1;ratioP1;P1;durP2;ratioP2;P2;SDS_P1;SDS_P2;PMS_P1;PMS_P2;Temp;Humidity;BMP_temperature;BMP_pressure;BME280_temperature;BME280_humidity;BME280_pressure;Samples;Min_cycle;Max_cycle;Signal;HPM_P1;HPM_P2
2023/03/19 00:01:43;;;;;;;26.52;13.65;;;;;;;6.50;58.47;101108.94;5062168;28;20028;-68
2023/03/19 00:04:08;;;;;;;30.80;13.60;;;;;;;6.53;58.44;101101.13;5060814;28;20028;-68
2023/03/19 00:06:36;;;;;;;25.48;13.68;;;;;;;6.56;57.98;101100.19;5062217;28;20792;-70
2023/03/19 00:09:02;;;;;;;27.20;14.77;;;;;;;6.44;58.48;101102.16;5058789;28;20123;-69
2023/03/19 00:11:27;;;;;;;35.45;16.15;;;;;;;6.57;57.95;101096.69;5064052;28;20107;-70
2023/03/19 00:13:53;;;;;;;27.73;15.13;;;;;;;6.52;58.26;101099.41;5061197;28;20459;-69
2023/03/19 00:16:18;;;;;;;26.50;13.82;;;;;;;6.65;58.25;101105.22;5060286;28;20502;-70
2023/03/19 00:18:44;;;;;;;27.85;14.32;;;;;;;6.67;58.18;101101.69;5063642;28;20488;-70
2023/03/19 00:21:09;;;;;;;29.33;15.85;;;;;;;6.61;58.54;101103.56;5050289;28;20100;-69
2023/03/19 00:23:35;;;;;;;32.95;16.65;;;;;;;6.63;58.47;101102.63;5060276;28;20065;-70
2023/03/19 00:26:02;;;;;;;32.53;15.70;;;;;;;6.72;58.54;101101.59;5059827;28;20931;-70
2023/03/19 00:28:29;;;;;;;27.73;15.18;;;;;;;6.68;58.73;101105.13;5064671;28;20050;-71
2023/03/19 00:30:55;;;;;;;25.00;14.25;;;;;;;6.70;57.81;101119.81;5058979;28;20040;-70
2023/03/19 00:33:20;;;;;;;24.70;14.85;;;;;;;6.84;57.57;101111.75;5061130;28;20102;-68
2023/03/19 00:35:46;;;;;;;31.27;15.32;;;;;;;6.74;57.36;101112.81;5059820;28;20075;-70
2023/03/19 00:38:12;;;;;;;35.20;16.13;;;;;;;6.60;57.45;101120.03;5044935;28;20487;-70
2023/03/19 00:40:38;;;;;;;23.55;13.77;;;;;;;6.52;57.97;101103.75;5060946;28;20472;-70
2023/03/19 00:43:03;;;;;;;26.30;13.93;;;;;;;6.52;57.94;101103.75;5046499;28;20070;-71
2023/03/19 00:45:29;;;;;;;27.90;14.95;;;;;;;6.55;58.00;101101.06;5061432;28;20068;-70
2023/03/19 00:47:56;;;;;;;26.38;13.02;;;;;;;6.57;57.80;101101.91;5059560;28;20174;-70
2023/03/19 00:50:23;;;;;;;25.65;14.75;;;;;;;6.51;58.01;101102.88;5059099;28;20036;-70
2023/03/19 00:52:49;;;;;;;26.20;14.63;;;;;;;6.49;57.98;101104.66;5065423;28;20075;-81
2023/03/19 00:55:15;;;;;;;22.55;12.63;;;;;;;6.54;58.13;101097.63;5049932;28;20504;-78
2023/03/19 00:57:40;;;;;;;22.70;12.60;;;;;;;6.52;58.52;101094.19;5067026;28;20428;-78
2023/03/19 01:00:07;;;;;;;22.90;13.27;;;;;;;6.59;58.42;101100.13;5069320;28;20032;-79
2023/03/19 01:02:32;;;;;;;22.73;14.02;;;;;;;6.61;58.60;101098.34;5057845;28;20032;-77
2023/03/19 01:04:58;;;;;;;23.23;12.77;;;;;;;6.71;58.61;101099.91;5060109;28;20036;-80
2023/03/19 01:07:24;;;;;;;22.27;12.38;;;;;;;6.74;58.42;101093.78;5058826;28;20057;-78
2023/03/19 01:09:50;;;;;;;24.42;13.35;;;;;;;6.80;58.37;101096.25;5069482;28;20651;-80
2023/03/19 01:12:18;;;;;;;20.85;12.00;;;;;;;6.85;58.05;101091.81;5068924;28;20032;-80
2023/03/19 01:14:44;;;;;;;26.20;13.32;;;;;;;6.90;57.85;101102.97;5056670;28;20040;-80
2023/03/19 01:17:09;;;;;;;20.13;12.80;;;;;;;6.89;57.90;101096.91;5062075;28;20028;-70
2023/03/19 01:19:35;;;;;;;22.20;12.55;;;;;;;6.90;58.21;101093.41;5047975;28;20066;-70
2023/03/19 01:22:03;;;;;;;22.33;12.38;;;;;;;6.94;57.86;101091.63;5061523;28;20063;-69
2023/03/19 01:24:31;;;;;;;24.20;12.60;;;;;;;6.99;58.02;101094.13;5042395;28;20029;-70
2023/03/19 01:26:57;;;;;;;19.13;11.27;;;;;;;7.02;57.37;101091.44;5068118;28;20729;-79
2023/03/19 01:29:30;;;;;;;24.10;13.18;;;;;;;7.01;57.66;101095.78;5069178;28;20046;-77
2023/03/19 01:31:59;;;;;;;15.15;10.48;;;;;;;7.07;57.85;101097.41;5060798;28;20032;-78
2023/03/19 01:34:56;;;;;;;16.92;10.27;;;;;;;7.09;57.44;101093.03;5071044;28;20041;-79
2023/03/19 01:37:21;;;;;;;17.67;11.27;;;;;;;7.08;57.53;101099.13;5069063;28;20051;-77
2023/03/19 01:39:47;;;;;;;17.95;10.23;;;;;;;7.14;57.63;101086.00;5069501;28;20040;-79
2023/03/19 01:42:13;;;;;;;16.45;9.90;;;;;;;7.11;57.81;101092.13;5056903;28;20036;-70
2023/03/19 01:45:31;;;;;;;17.00;9.63;;;;;;;7.31;57.34;101091.66;5049747;28;20036;-70
2023/03/19 01:48:24;;;;;;;14.13;9.00;;;;;;;7.33;57.48;101089.91;5059532;28;20050;-69
2023/03/19 01:51:00;;;;;;;12.82;8.57;;;;;;;7.33;57.16;101084.69;5046142;28;20043;-70
2023/03/19 01:53:48;;;;;;;15.48;7.82;;;;;;;7.37;57.52;101082.84;5049700;28;20261;-70
2023/03/19 01:56:35;;;;;;;12.27;7.72;;;;;;;7.48;57.21;101083.47;5051079;28;20915;-78
2023/03/19 01:59:14;;;;;;;11.02;7.03;;;;;;;7.42;57.53;101077.53;5060255;28;20061;-76
2023/03/19 02:02:08;;;;;;;9.90;7.18;;;;;;;7.48;57.05;101085.22;5053218;28;20122;-78
2023/03/19 02:04:35;;;;;;;14.75;8.32;;;;;;;7.48;57.22;101086.06;5051767;28;20716;-77
2023/03/19 02:07:03;;;;;;;11.05;7.45;;;;;;;7.49;56.93;101092.13;5056154;28;20523;-74
2023/03/19 02:09:29;;;;;;;12.43;7.63;;;;;;;7.46;56.97;101090.44;5061336;28;20475;-71
2023/03/19 02:11:58;;;;;;;10.90;7.53;;;;;;;7.51;57.14;101092.94;5051702;28;20511;-72
2023/03/19 02:14:23;;;;;;;9.63;6.25;;;;;;;7.57;56.96;101085.03;5068409;28;20044;-71
2023/03/19 02:16:50;;;;;;;11.13;7.57;;;;;;;7.50;56.76;101086.03;5068995;28;20059;-71
2023/03/19 02:19:49;;;;;;;10.88;7.63;;;;;;;7.46;57.03;101087.00;5051153;28;20040;-72
2023/03/19 02:22:18;;;;;;;13.85;7.07;;;;;;;7.46;56.87;101094.78;5041311;28;20038;-70
2023/03/19 02:24:51;;;;;;;8.55;5.90;;;;;;;7.51;56.86;101090.31;5039645;28;20066;-73
2023/03/19 02:27:19;;;;;;;10.73;6.60;;;;;;;7.53;56.85;101091.16;5043359;28;20089;-72
2023/03/19 02:29:47;;;;;;;12.25;7.85;;;;;;;7.50;56.83;101080.81;5044197;28;20040;-73
2023/03/19 02:32:13;;;;;;;10.20;7.18;;;;;;;7.48;56.79;101088.66;5060031;28;20160;-73
2023/03/19 02:34:41;;;;;;;9.00;6.63;;;;;;;7.46;56.95;101084.38;5042516;28;20497;-69
2023/03/19 02:37:21;;;;;;;11.43;6.85;;;;;;;7.56;57.00;101091.13;5059141;28;20033;-68
2023/03/19 02:40:03;;;;;;;10.30;6.35;;;;;;;7.54;56.77;101087.69;5042756;28;20186;-71
2023/03/19 02:42:29;;;;;;;;;;;;;;;7.64;56.88;101086.56;5057732;28;20506;-70
2023/03/19 02:44:56;;;;;;;11.02;7.18;;;;;;;7.64;56.42;101089.19;5044446;28;19950;-69
2023/03/19 02:47:23;;;;;;;10.45;7.13;;;;;;;7.54;56.56;101087.69;5041075;28;20043;-69
2023/03/19 02:49:48;;;;;;;10.10;7.15;;;;;;;7.51;56.74;101083.41;5059412;28;20423;-71
2023/03/19 02:52:14;;;;;;;9.77;7.13;;;;;;;7.42;56.74;101082.75;5044970;28;20033;-70
2023/03/19 02:54:40;;;;;;;11.27;6.75;;;;;;;7.37;56.83;101079.41;5057842;28;20071;-72
2023/03/19 02:57:06;;;;;;;12.85;7.20;;;;;;;7.32;56.89;101082.97;5059983;28;20029;-72
2023/03/19 02:59:31;;;;;;;10.52;7.07;;;;;;;7.31;56.69;101081.28;5056983;28;20051;-70
2023/03/19 03:01:57;;;;;;;13.70;7.38;;;;;;;7.18;56.80;101090.22;5044314;28;20560;-72
2023/03/19 03:04:23;;;;;;;11.30;8.02;;;;;;;7.07;57.52;101092.22;5055279;28;20033;-72
2023/03/19 03:06:48;;;;;;;8.20;6.60;;;;;;;7.23;57.32;101097.94;5060486;28;20508;-70
2023/03/19 03:09:13;;;;;;;12.48;7.85;;;;;;;7.30;57.12;101089.94;5057288;28;20083;-72
2023/03/19 03:11:42;;;;;;;11.57;7.80;;;;;;;7.25;56.90;101091.81;5058879;28;20139;-71
2023/03/19 03:14:08;;;;;;;10.52;7.15;;;;;;;7.27;57.26;101099.56;5058006;28;20115;-72
2023/03/19 03:16:33;;;;;;;11.55;7.88;;;;;;;7.33;57.19;101087.28;5056228;28;20092;-72
2023/03/19 03:18:59;;;;;;;9.85;8.18;;;;;;;7.30;57.08;101079.53;5059063;28;20036;-72
2023/03/19 03:21:25;;;;;;;12.38;8.63;;;;;;;7.30;57.05;101094.28;5042235;28;20032;-72
2023/03/19 03:23:51;;;;;;;14.20;8.07;;;;;;;7.26;56.88;101088.28;5060355;28;20136;-76
2023/03/19 03:26:16;;;;;;;11.25;8.10;;;;;;;7.27;57.34;101094.38;5057560;28;20066;-76
2023/03/19 03:28:42;;;;;;;10.77;8.05;;;;;;;7.25;57.10;101099.59;5047591;28;20480;-77
2023/03/19 03:31:08;;;;;;;13.60;8.27;;;;;;;7.31;57.21;101091.66;5030742;28;20123;-76
2023/03/19 03:33:35;;;;;;;12.13;8.10;;;;;;;7.30;57.64;101095.13;5058648;28;20043;-70
2023/03/19 03:36:00;;;;;;;10.65;8.25;;;;;;;7.42;56.95;101098.34;5045103;28;20558;-69
2023/03/19 03:38:26;;;;;;;12.77;9.07;;;;;;;7.43;56.93;101106.13;5058392;28;20040;-70
2023/03/19 03:40:52;;;;;;;11.23;8.35;;;;;;;7.41;56.90;101101.84;5057188;28;20045;-69
2023/03/19 03:43:20;;;;;;;12.68;8.48;;;;;;;7.39;56.94;101103.63;5045455;28;20035;-69
2023/03/19 03:45:49;;;;;;;12.55;9.00;;;;;;;7.36;56.77;101101.13;5051629;28;20389;-69
2023/03/19 03:48:16;;;;;;;12.57;8.95;;;;;;;7.37;57.08;101098.47;5044791;28;20118;-71
2023/03/19 03:50:42;;;;;;;15.55;10.25;;;;;;;7.36;56.95;101099.38;5050728;28;20044;-70
2023/03/19 03:53:12;;;;;;;15.73;8.70;;;;;;;7.33;56.85;101097.69;5062226;28;20032;-70
2023/03/19 03:55:38;;;;;;;13.68;8.75;;;;;;;7.40;56.93;101095.81;5059060;28;20071;-70
2023/03/19 03:58:04;;;;;;;14.63;9.05;;;;;;;7.50;56.94;101101.63;5044179;28;20098;-69
2023/03/19 04:00:29;;;;;;;12.07;8.68;;;;;;;7.52;56.87;101092.91;5049756;28;20033;-70
2023/03/19 04:02:55;;;;;;;11.32;8.10;;;;;;;7.52;56.71;101099.84;5045632;28;20131;-74
2023/03/19 04:05:21;;;;;;;13.68;9.27;;;;;;;7.47;56.89;101102.56;5060953;28;20159;-74
2023/03/19 04:07:50;;;;;;;15.05;9.10;;;;;;;7.47;57.29;101107.78;5051803;28;20136;-74
2023/03/19 04:10:17;;;;;;;16.42;9.00;;;;;;;7.39;57.48;101107.09;5047830;28;20457;-75
2023/03/19 04:12:44;;;;;;;14.50;9.90;;;;;;;7.38;57.23;101107.09;5047509;28;20655;-73
2023/03/19 04:15:10;;;;;;;14.95;10.15;;;;;;;7.26;57.66;101123.84;5060686;28;20044;-73
2023/03/19 04:17:39;;;;;;;14.65;9.15;;;;;;;7.41;57.29;101112.25;5049480;28;20039;-70
2023/03/19 04:20:06;;;;;;;15.60;9.75;;;;;;;7.49;57.40;101112.94;5061887;28;20066;-70
2023/03/19 04:22:32;;;;;;;16.80;10.23;;;;;;;7.53;56.80;101106.75;5058322;28;20443;-71
2023/03/19 04:24:58;;;;;;;13.68;9.60;;;;;;;7.56;56.91;101111.94;5046854;28;20224;-70
2023/03/19 04:27:25;;;;;;;17.67;10.65;;;;;;;7.59;56.92;101106.66;5048883;28;20595;-70
2023/03/19 04:29:50;;;;;;;16.55;9.63;;;;;;;7.64;56.68;101098.72;5044321;28;20032;-70
2023/03/19 04:32:16;;;;;;;14.10;10.40;;;;;;;7.57;56.91;101099.78;5049495;28;20611;-72
2023/03/19 04:34:42;;;;;;;17.27;9.90;;;;;;;7.49;57.04;101103.38;5049807;28;20065;-72
2023/03/19 04:37:09;;;;;;;15.73;10.13;;;;;;;7.51;56.96;101108.53;5064648;28;20051;-73
2023/03/19 04:39:40;;;;;;;17.00;10.57;;;;;;;7.54;57.10;101103.28;5050437;28;20039;-76
2023/03/19 04:42:07;;;;;;;15.32;8.98;;;;;;;7.56;57.16;101105.84;5054313;28;20032;-68
2023/03/19 04:44:36;;;;;;;14.73;8.82;;;;;;;7.59;57.10;101105.81;5046413;28;20041;-68
2023/03/19 04:47:03;;;;;;;12.82;9.48;;;;;;;7.31;57.84;101112.47;5049752;28;20059;-69
2023/03/19 04:49:35;;;;;;;14.23;9.32;;;;;;;7.53;57.54;101111.97;5039784;28;20085;-69
2023/03/19 04:52:02;;;;;;;14.13;9.23;;;;;;;7.61;56.81;101104.88;5050401;28;20038;-70
2023/03/19 04:54:28;;;;;;;14.45;9.60;;;;;;;7.66;57.20;101103.00;5057257;28;20194;-70
2023/03/19 04:56:55;;;;;;;13.40;9.65;;;;;;;7.63;56.99;101105.69;5046489;28;20036;-69
2023/03/19 04:59:23;;;;;;;13.90;9.65;;;;;;;7.69;56.43;101099.47;5044099;28;20043;-75
2023/03/19 05:01:49;;;;;;;12.45;9.73;;;;;;;7.61;56.67;101109.22;5045037;28;20058;-73
2023/03/19 05:04:19;;;;;;;13.93;9.27;;;;;;;7.56;56.97;101106.75;5047222;28;20036;-70
2023/03/19 05:06:45;;;;;;;14.38;10.25;;;;;;;7.62;56.43;101106.56;5051180;28;20032;-72
2023/03/19 05:09:11;;;;;;;14.73;10.68;;;;;;;7.63;56.89;101112.66;5058695;28;20067;-70
2023/03/19 05:11:37;;;;;;;14.70;9.90;;;;;;;7.66;56.67;101112.56;5047912;28;20508;-73
2023/03/19 05:14:07;;;;;;;14.63;9.80;;;;;;;7.69;56.65;101117.69;5048570;28;20508;-71
2023/03/19 05:16:45;;;;;;;13.30;10.15;;;;;;;7.63;56.65;101117.84;5060422;28;20124;-71
2023/03/19 05:19:10;;;;;;;16.63;10.38;;;;;;;7.45;56.91;101124.31;5059761;28;20074;-70
2023/03/19 05:21:37;;;;;;;14.75;9.60;;;;;;;7.54;56.77;101118.88;5043038;28;20509;-70
2023/03/19 05:24:04;;;;;;;14.77;10.27;;;;;;;7.38;56.90;101122.72;5060240;28;20031;-71
2023/03/19 05:26:33;;;;;;;15.80;9.48;;;;;;;7.48;56.76;101124.22;5043947;28;20073;-71
2023/03/19 05:29:16;;;;;;;17.13;10.85;;;;;;;7.37;56.76;101134.88;5059756;28;20036;-71
2023/03/19 05:31:54;;;;;;;16.27;10.20;;;;;;;7.18;57.71;101142.22;5043302;28;20493;-71
2023/03/19 05:34:20;;;;;;;15.30;10.10;;;;;;;7.17;57.55;101124.91;5057905;28;20045;-72
2023/03/19 05:36:46;;;;;;;16.48;11.18;;;;;;;7.33;57.20;101130.63;5046089;28;20088;-71
2023/03/19 05:39:16;;;;;;;15.43;10.45;;;;;;;7.30;57.03;101139.34;5042042;28;20032;-72
2023/03/19 05:41:43;;;;;;;18.77;11.35;;;;;;;7.39;57.02;101134.84;5045944;28;20036;-72
2023/03/19 05:44:10;;;;;;;16.25;11.00;;;;;;;7.20;57.47;101144.78;5047762;28;20025;-70
2023/03/19 05:46:47;;;;;;;12.52;9.73;;;;;;;7.35;57.30;101146.19;5047693;28;20070;-72
2023/03/19 05:49:13;;;;;;;15.35;9.45;;;;;;;7.32;57.12;101145.38;5041777;28;20067;-71
2023/03/19 05:51:40;;;;;;;14.95;11.10;;;;;;;7.49;56.84;101155.41;5044639;28;20028;-70
2023/03/19 05:54:06;;;;;;;17.17;10.68;;;;;;;7.46;57.01;101159.81;5044046;28;20112;-69
2023/03/19 05:56:35;;;;;;;14.05;10.82;;;;;;;7.51;57.03;101158.84;5055457;28;20036;-69
2023/03/19 05:59:39;;;;;;;16.65;10.88;;;;;;;7.48;57.20;101155.44;5001857;28;20041;-70
2023/03/19 06:02:31;;;;;;;13.82;10.27;;;;;;;7.38;57.21;101164.31;4967107;28;20037;-70
2023/03/19 06:05:15;;;;;;;19.50;10.57;;;;;;;7.15;57.94;101168.28;5046318;28;20615;-69
2023/03/19 06:07:42;;;;;;;18.75;11.07;;;;;;;7.47;57.29;101169.34;5057924;28;20631;-70
2023/03/19 06:10:16;;;;;;;16.30;10.65;;;;;;;7.56;57.16;101174.38;5049308;28;20040;-71
2023/03/19 06:12:41;;;;;;;15.60;10.57;;;;;;;7.61;56.97;101171.66;5043038;28;20040;-69
2023/03/19 06:15:26;;;;;;;17.95;11.25;;;;;;;7.53;57.11;101169.19;5058582;28;20089;-74
2023/03/19 06:18:07;;;;;;;15.73;11.57;;;;;;;7.57;57.08;101165.66;5051379;28;20054;-73
2023/03/19 06:20:33;;;;;;;16.63;10.95;;;;;;;7.75;56.49;101166.97;5039450;28;20041;-71
2023/03/19 06:22:59;;;;;;;14.13;10.63;;;;;;;7.87;56.07;101158.91;5043218;28;20111;-72
2023/03/19 06:25:24;;;;;;;16.52;10.32;;;;;;;7.99;56.31;101162.94;5042296;28;20055;-71
2023/03/19 06:27:50;;;;;;;17.50;10.32;;;;;;;7.90;56.04;101168.38;5057990;28;20032;-72
2023/03/19 06:30:24;;;;;;;15.00;9.82;;;;;;;8.05;55.70;101162.78;5046045;28;20041;-68
2023/03/19 06:32:51;;;;;;;13.23;9.25;;;;;;;8.05;55.50;101159.34;5043532;28;20069;-70
2023/03/19 06:35:17;;;;;;;14.65;9.77;;;;;;;8.05;55.73;101170.59;5045231;28;20044;-73
2023/03/19 06:37:46;;;;;;;14.25;8.85;;;;;;;8.09;55.62;101159.22;5039158;28;20043;-73
2023/03/19 06:40:12;;;;;;;14.88;8.88;;;;;;;8.15;55.90;101164.25;5058477;28;20046;-71
2023/03/19 06:42:37;;;;;;;15.18;9.02;;;;;;;8.30;55.42;101173.44;5054902;28;20036;-72
2023/03/19 06:45:03;;;;;;;12.55;8.88;;;;;;;8.56;54.58;101164.94;5046476;28;20029;-71
2023/03/19 06:47:28;;;;;;;17.30;9.95;;;;;;;8.76;54.17;101172.25;5056515;28;20035;-68
2023/03/19 06:49:55;;;;;;;11.50;8.43;;;;;;;8.87;54.24;101173.69;5058228;28;20524;-69
2023/03/19 06:52:21;;;;;;;17.75;8.43;;;;;;;8.97;53.72;101170.78;5060182;28;20040;-69
2023/03/19 06:54:46;;;;;;;13.82;9.98;;;;;;;8.86;53.81;101178.06;5056225;28;20087;-67
2023/03/19 06:57:12;;;;;;;11.77;8.23;;;;;;;8.91;54.05;101175.31;5060521;28;20036;-68
2023/03/19 06:59:37;;;;;;;12.48;8.98;;;;;;;8.92;53.89;101179.66;5056122;28;20139;-68
2023/03/19 07:02:03;;;;;;;11.20;8.38;;;;;;;10.08;54.68;101177.00;5045070;28;20101;-69
2023/03/19 07:04:29;;;;;;;12.73;8.43;;;;;;;10.29;51.29;101180.66;5054945;28;20154;-69
2023/03/19 07:06:54;;;;;;;11.05;7.68;;;;;;;10.12;51.47;101186.44;5057417;28;20062;-68
2023/03/19 07:09:20;;;;;;;11.52;7.65;;;;;;;10.26;50.63;101186.84;5061410;28;20040;-67
2023/03/19 07:11:45;;;;;;;12.18;7.15;;;;;;;9.63;51.33;101191.44;5064745;28;20031;-69
2023/03/19 07:14:11;;;;;;;11.50;7.47;;;;;;;9.72;52.60;101195.50;5065738;28;20043;-69
2023/03/19 07:16:36;;;;;;;11.20;8.07;;;;;;;9.65;51.63;101197.47;5059860;28;20029;-69
2023/03/19 07:19:02;;;;;;;10.75;6.82;;;;;;;9.55;52.11;101196.91;5060685;28;20075;-68
2023/03/19 07:21:28;;;;;;;9.57;6.95;;;;;;;9.76;51.84;101203.19;5062583;28;20051;-69
2023/03/19 07:23:54;;;;;;;12.30;6.95;;;;;;;9.87;51.86;101204.66;5060759;28;20477;-68
2023/03/19 07:26:19;;;;;;;10.50;7.22;;;;;;;9.72;51.67;101204.22;5062703;28;20416;-69
2023/03/19 07:28:45;;;;;;;9.52;7.35;;;;;;;9.85;51.38;101201.25;5058664;28;20389;-69
2023/03/19 07:31:10;;;;;;;8.90;6.60;;;;;;;10.62;51.15;101210.00;5059508;28;20154;-69
2023/03/19 07:33:35;;;;;;;9.93;6.10;;;;;;;10.94;49.59;101201.03;5037331;28;20028;-67
2023/03/19 07:36:01;;;;;;;9.30;5.88;;;;;;;11.20;49.01;101209.72;5053231;28;20500;-68
2023/03/19 07:38:27;;;;;;;8.60;5.57;;;;;;;10.68;49.88;101217.63;5041620;28;20032;-69
2023/03/19 07:40:52;;;;;;;8.27;5.55;;;;;;;10.59;50.64;101216.19;5054059;28;22377;-68
2023/03/19 07:43:19;;;;;;;8.77;5.82;;;;;;;10.94;50.08;101214.13;5056517;28;20102;-68
2023/03/19 07:45:44;;;;;;;10.45;6.10;;;;;;;10.97;49.48;101210.53;5034174;28;20062;-70
2023/03/19 07:48:10;;;;;;;11.25;6.40;;;;;;;10.84;49.58;101212.75;5059107;28;20116;-69
2023/03/19 07:50:35;;;;;;;8.73;6.10;;;;;;;10.98;49.13;101213.09;5024158;28;20059;-68
2023/03/19 07:53:02;;;;;;;9.50;6.05;;;;;;;11.36;49.16;101209.97;5059625;28;20484;-69
2023/03/19 07:55:28;;;;;;;11.38;6.00;;;;;;;11.09;49.05;101214.47;5039833;28;20584;-68
2023/03/19 07:57:53;;;;;;;8.93;6.85;;;;;;;11.08;49.14;101208.38;5053961;28;20046;-67
2023/03/19 08:00:19;;;;;;;7.30;6.38;;;;;;;11.15;49.36;101211.63;5055594;28;20447;-68
2023/03/19 08:02:45;;;;;;;8.95;6.28;;;;;;;10.73;49.88;101217.47;5053726;28;20111;-69
2023/03/19 08:05:11;;;;;;;8.05;5.68;;;;;;;10.53;50.20;101216.41;5056481;28;20035;-72
2023/03/19 08:07:36;;;;;;;8.50;6.18;;;;;;;11.53;49.01;101215.44;5051901;28;20719;-67
2023/03/19 08:10:04;;;;;;;6.90;5.32;;;;;;;14.57;44.02;101211.53;5056722;28;20121;-68
2023/03/19 08:12:30;;;;;;;8.77;5.10;;;;;;;16.87;36.19;101207.44;5053517;28;20028;-68
2023/03/19 08:14:56;;;;;;;8.10;4.50;;;;;;;18.91;35.38;101222.38;5038588;28;20044;-69
2023/03/19 08:17:22;;;;;;;7.82;4.10;;;;;;;18.56;34.78;101215.88;5054786;28;20036;-70
2023/03/19 08:19:47;;;;;;;6.72;3.90;;;;;;;18.23;33.62;101227.00;5052298;28;20226;-67
2023/03/19 08:22:13;;;;;;;4.85;4.03;;;;;;;16.91;35.72;101227.44;5056190;28;20514;-68
2023/03/19 08:24:38;;;;;;;6.00;4.35;;;;;;;15.97;38.10;101241.69;5052419;28;20124;-67
2023/03/19 08:27:06;;;;;;;5.45;4.35;;;;;;;14.75;40.86;101242.13;5056396;28;20891;-67
2023/03/19 08:29:33;;;;;;;5.15;4.60;;;;;;;12.17;44.93;101253.09;5052516;28;20044;-67
2023/03/19 08:32:00;;;;;;;6.43;4.90;;;;;;;11.85;45.03;101255.25;5055402;28;20040;-68
2023/03/19 08:34:26;;;;;;;6.78;4.93;;;;;;;11.39;47.69;101260.41;5055017;28;20106;-68
2023/03/19 08:36:53;;;;;;;8.80;6.00;;;;;;;11.11;47.76;101265.84;5039503;28;20039;-67
2023/03/19 08:39:19;;;;;;;8.18;5.50;;;;;;;10.80;49.04;101261.66;5038727;28;20045;-68
2023/03/19 08:41:46;;;;;;;9.52;5.35;;;;;;;10.74;50.00;101266.22;5053397;28;20047;-68
2023/03/19 08:44:12;;;;;;;7.47;5.55;;;;;;;10.63;49.50;101267.44;5044903;28;20631;-68
2023/03/19 08:46:38;;;;;;;7.13;5.47;;;;;;;10.08;50.59;101274.50;5055264;28;20016;-67
2023/03/19 08:49:05;;;;;;;8.05;6.03;;;;;;;9.71;52.52;101283.41;5041692;28;20039;-68
2023/03/19 08:51:31;;;;;;;8.13;5.78;;;;;;;10.22;50.91;101276.66;5053644;28;20027;-69
2023/03/19 08:53:59;;;;;;;8.43;5.82;;;;;;;10.57;50.11;101285.97;5051979;28;20028;-69
2023/03/19 08:56:28;;;;;;;7.35;6.13;;;;;;;10.51;51.11;101280.09;5039505;28;20040;-68
2023/03/19 08:58:56;;;;;;;6.72;5.32;;;;;;;10.68;50.45;101285.59;5051187;28;20476;-69
2023/03/19 09:01:23;;;;;;;9.05;5.47;;;;;;;10.55;50.33;101285.16;5040596;28;20039;-69
2023/03/19 09:03:48;;;;;;;8.48;6.10;;;;;;;10.66;50.89;101286.53;5037519;28;20696;-68
2023/03/19 09:06:14;;;;;;;10.50;5.43;;;;;;;10.16;51.37;101285.53;5053648;28;20042;-68
2023/03/19 09:08:41;;;;;;;8.55;5.75;;;;;;;10.01;52.23;101293.84;5055139;28;20035;-68
2023/03/19 09:11:09;;;;;;;10.82;5.95;;;;;;;10.11;51.93;101292.69;5055147;28;20032;-67
2023/03/19 09:13:34;;;;;;;15.38;6.93;;;;;;;10.19;51.74;101295.91;5050755;28;21586;-68
2023/03/19 09:16:00;;;;;;;11.80;6.00;;;;;;;10.71;51.08;101297.72;5051378;28;20036;-66
2023/03/19 09:18:26;;;;;;;9.10;5.70;;;;;;;10.47;51.59;101305.47;5054547;28;20028;-68
2023/03/19 09:20:53;;;;;;;8.55;5.57;;;;;;;11.08;49.62;101301.69;5033292;28;21132;-68
2023/03/19 09:23:20;;;;;;;9.93;5.10;;;;;;;11.14;48.67;101306.72;5053602;28;20152;-67
2023/03/19 09:25:45;;;;;;;7.70;5.15;;;;;;;10.92;50.48;101310.06;5049801;28;20037;-67
2023/03/19 09:28:11;;;;;;;12.48;6.60;;;;;;;10.60;50.19;101306.78;5054161;28;20040;-68
2023/03/19 09:30:38;;;;;;;8.18;5.82;;;;;;;10.61;50.71;101305.84;5050177;28;20106;-68
2023/03/19 09:33:04;;;;;;;9.57;5.35;;;;;;;10.40;50.76;101314.41;5052404;28;20044;-69
2023/03/19 09:35:31;;;;;;;8.73;5.68;;;;;;;10.05;51.33;101310.28;5053934;28;20066;-68
2023/03/19 09:37:58;;;;;;;8.63;6.03;;;;;;;9.98;52.26;101312.25;5051042;28;20054;-67
2023/03/19 09:40:33;;;;;;;9.38;5.82;;;;;;;10.22;51.76;101310.63;5051490;28;20842;-68
2023/03/19 09:43:30;;;;;;;8.80;6.55;;;;;;;10.74;50.71;101313.28;5050533;28;20031;-68
2023/03/19 09:45:57;;;;;;;10.45;6.65;;;;;;;11.15;49.56;101314.53;5050909;28;20063;-69
2023/03/19 09:49:05;;;;;;;13.65;7.03;;;;;;;10.92;50.07;101323.16;5053722;28;20039;-68
2023/03/19 09:51:48;;;;;;;9.40;5.82;;;;;;;11.23;49.27;101314.25;5053626;28;20043;-69
2023/03/19 09:54:26;;;;;;;11.60;5.65;;;;;;;11.15;48.94;101325.00;5052134;28;20521;-69
2023/03/19 09:56:53;;;;;;;10.45;6.20;;;;;;;11.16;49.04;101320.59;5053097;28;20501;-68
2023/03/19 09:59:23;;;;;;;8.55;5.88;;;;;;;10.72;49.81;101321.19;5052394;28;20033;-68
2023/03/19 10:01:57;;;;;;;10.73;6.45;;;;;;;11.54;48.13;101331.47;5038487;28;20496;-68
2023/03/19 10:04:41;;;;;;;8.57;6.28;;;;;;;11.65;48.71;101329.28;5035973;28;20477;-68
2023/03/19 10:07:14;;;;;;;8.93;5.68;;;;;;;12.06;47.85;101334.75;5054953;28;20024;-67
2023/03/19 10:10:12;;;;;;;16.30;7.43;;;;;;;11.99;47.21;101338.50;5051772;28;20102;-67
2023/03/19 10:12:55;;;;;;;9.77;6.50;;;;;;;12.34;46.07;101338.91;5033752;28;20080;-68
2023/03/19 10:15:28;;;;;;;10.52;6.95;;;;;;;12.40;46.35;101336.91;5052864;28;20049;-68
2023/03/19 10:18:09;;;;;;;10.13;6.82;;;;;;;12.61;47.37;101340.41;5049568;28;20089;-68
2023/03/19 10:21:01;;;;;;;11.32;8.02;;;;;;;11.43;47.00;101344.94;5050937;28;20534;-68
2023/03/19 10:23:54;;;;;;;10.18;7.00;;;;;;;12.39;46.92;101347.44;5024987;28;20497;-67
2023/03/19 10:26:25;;;;;;;9.45;7.05;;;;;;;12.50;45.86;101340.00;5053655;28;20126;-68
2023/03/19 10:29:03;;;;;;;9.98;7.28;;;;;;;12.44;45.35;101345.47;5053891;28;20031;-68
2023/03/19 10:31:43;;;;;;;9.93;7.20;;;;;;;11.48;46.76;101339.53;5036669;28;20036;-69
2023/03/19 10:34:33;;;;;;;7.95;6.03;;;;;;;11.40;47.77;101345.06;5049663;28;20040;-68
2023/03/19 10:37:19;;;;;;;10.98;7.38;;;;;;;10.98;48.47;101343.88;5053960;28;20032;-68
2023/03/19 10:39:47;;;;;;;9.70;6.97;;;;;;;11.34;47.94;101348.72;5051868;28;20572;-69
2023/03/19 10:42:55;;;;;;;8.90;6.50;;;;;;;11.28;48.44;101355.94;5050661;28;20052;-67
2023/03/19 10:45:25;;;;;;;11.77;6.90;;;;;;;11.58;47.60;101357.47;5051052;28;20040;-68
2023/03/19 10:47:52;;;;;;;10.93;6.00;;;;;;;11.88;47.33;101360.72;5052834;28;20043;-67
2023/03/19 10:50:24;;;;;;;9.02;5.80;;;;;;;11.95;46.35;101360.50;5050120;28;20037;-68
2023/03/19 10:52:50;;;;;;;;;;;;;;;12.42;46.27;101363.03;5053544;28;20039;-69
2023/03/19 10:55:24;;;;;;;8.23;5.10;;;;;;;12.01;46.05;101355.88;5054124;28;20447;-68
2023/03/19 10:58:00;;;;;;;5.15;4.38;;;;;;;12.65;44.43;101360.34;5055832;28;20069;-67
2023/03/19 11:00:31;;;;;;;10.73;5.38;;;;;;;12.75;42.82;101347.72;5057937;28;20229;-68
2023/03/19 11:02:58;;;;;;;6.10;4.53;;;;;;;12.19;43.82;101362.16;5055177;28;20051;-69
2023/03/19 11:05:28;;;;;;;7.10;4.22;;;;;;;12.65;42.76;101352.47;5042265;28;20044;-68
2023/03/19 11:08:03;;;;;;;7.43;4.55;;;;;;;12.22;43.31;101354.22;5041661;28;20059;-68
2023/03/19 11:10:32;;;;;;;4.68;3.60;;;;;;;12.56;41.67;101355.47;5057087;28;20117;-68
2023/03/19 11:13:03;;;;;;;7.32;3.55;;;;;;;12.47;42.27;101361.09;5035374;28;20111;-68
2023/03/19 11:15:37;;;;;;;7.65;4.28;;;;;;;12.74;42.47;101353.06;5057053;28;20047;-68
2023/03/19 11:18:27;;;;;;;4.88;3.60;;;;;;;13.67;41.14;101345.50;5044028;28;20097;-69
2023/03/19 11:20:55;;;;;;;3.88;2.70;;;;;;;12.94;40.29;101350.44;5021605;28;20052;-68
2023/03/19 11:23:21;;;;;;;5.03;3.65;;;;;;;12.33;42.22;101351.13;5055731;28;20043;-68
2023/03/19 11:25:52;;;;;;;7.55;4.13;;;;;;;12.27;42.00;101354.88;5036781;28;20052;-69
2023/03/19 11:28:23;;;;;;;4.70;3.55;;;;;;;11.57;44.17;101357.50;5055160;28;20458;-68
2023/03/19 11:31:14;;;;;;;6.88;3.53;;;;;;;11.81;43.69;101359.25;5052487;28;20073;-69
2023/03/19 11:33:47;;;;;;;4.40;3.28;;;;;;;11.80;43.23;101359.34;5057455;28;20028;-68
2023/03/19 11:36:17;;;;;;;6.03;4.18;;;;;;;11.61;44.08;101362.56;5052578;28;20041;-68